sensor_id;sensor_type;location;lat;lon;timestamp;temperature;humidity
38359;DHT22;42072;48.044;14.416;2023-12-28T00:02:16;0.80;99.90
38359;DHT22;42072;48.044;14.416;2023-12-28T00:04:44;0.80;99.90
38359;DHT22;42072;48.044;14.416;2023-12-28T00:07:11;0.70;99.90
38359;DHT22;42072;48.044;14.416;2023-12-28T00:09:39;0.80;99.90
38359;DHT22;42072;48.044;14.416;2023-12-28T00:12:06;0.80;99.90
38359;DHT22;42072;48.044;14.416;2023-12-28T00:14:33;0.70;99.90
38359;DHT22;42072;48.044;14.416;2023-12-28T00:17:00;0.70;99.90
38359;DHT22;42072;48.044;14.416;2023-12-28T00:19:28;0.70;99.90
38359;DHT22;42072;48.044;14.416;2023-12-28T00:21:55;0.70;99.90
38359;DHT22;42072;48.044;14.416;2023-12-28T00:24:22;0.60;99.90
38359;DHT22;42072;48.044;14.416;2023-12-28T00:26:49;0.60;99.90
38359;DHT22;42072;48.044;14.416;2023-12-28T00:29:16;0.50;99.90
38359;DHT22;42072;48.044;14.416;2023-12-28T00:31:43;0.50;99.90
38359;DHT22;42072;48.044;14.416;2023-12-28T00:34:11;0.50;99.90
38359;DHT22;42072;48.044;14.416;2023-12-28T00:36:38;0.50;99.90
38359;DHT22;42072;48.044;14.416;2023-12-28T00:39:05;0.50;99.90
38359;DHT22;42072;48.044;14.416;2023-12-28T00:41:32;0.40;99.90
38359;DHT22;42072;48.044;14.416;2023-12-28T00:43:59;0.40;99.90
38359;DHT22;42072;48.044;14.416;2023-12-28T00:46:28;0.30;99.90
38359;DHT22;42072;48.044;14.416;2023-12-28T00:48:55;0.20;99.90
38359;DHT22;42072;48.044;14.416;2023-12-28T00:51:23;0.20;99.90
38359;DHT22;42072;48.044;14.416;2023-12-28T00:53:50;0.20;99.90
38359;DHT22;42072;48.044;14.416;2023-12-28T00:56:17;0.10;99.90
38359;DHT22;42072;48.044;14.416;2023-12-28T00:58:44;0.10;99.90
38359;DHT22;42072;48.044;14.416;2023-12-28T01:01:11;0.10;99.90
38359;DHT22;42072;48.044;14.416;2023-12-28T01:03:39;0.00;99.90
38359;DHT22;42072;48.044;14.416;2023-12-28T01:06:06;0.00;99.90
38359;DHT22;42072;48.044;14.416;2023-12-28T01:08:34;0.10;99.90
38359;DHT22;42072;48.044;14.416;2023-12-28T01:11:01;0.10;99.90
38359;DHT22;42072;48.044;14.416;2023-12-28T01:13:29;0.10;99.90
38359;DHT22;42072;48.044;14.416;2023-12-28T01:15:58;0.10;99.90
38359;DHT22;42072;48.044;14.416;2023-12-28T01:18:25;0.00;99.90
38359;DHT22;42072;48.044;14.416;2023-12-28T01:20:53;0.10;99.90
38359;DHT22;42072;48.044;14.416;2023-12-28T01:23:20;0.20;99.90
38359;DHT22;42072;48.044;14.416;2023-12-28T01:25:47;0.30;99.90
38359;DHT22;42072;48.044;14.416;2023-12-28T01:28:14;0.30;99.90
38359;DHT22;42072;48.044;14.416;2023-12-28T01:30:41;0.30;99.90
38359;DHT22;42072;48.044;14.416;2023-12-28T01:33:11;0.20;99.90
38359;DHT22;42072;48.044;14.416;2023-12-28T01:35:38;0.10;99.90
38359;DHT22;42072;48.044;14.416;2023-12-28T01:38:05;0.00;99.90
38359;DHT22;42072;48.044;14.416;2023-12-28T01:40:33;-0.10;99.90
38359;DHT22;42072;48.044;14.416;2023-12-28T01:43:00;-0.20;99.90
38359;DHT22;42072;48.044;14.416;2023-12-28T01:45:28;-0.20;99.90
38359;DHT22;42072;48.044;14.416;2023-12-28T01:47:55;-0.30;99.90
38359;DHT22;42072;48.044;14.416;2023-12-28T01:50:23;-0.30;99.90
38359;DHT22;42072;48.044;14.416;2023-12-28T01:52:51;-0.40;99.90
38359;DHT22;42072;48.044;14.416;2023-12-28T01:55:18;-0.20;99.90
38359;DHT22;42072;48.044;14.416;2023-12-28T01:57:45;-0.20;99.90
38359;DHT22;42072;48.044;14.416;2023-12-28T02:00:12;-0.20;99.90
38359;DHT22;42072;48.044;14.416;2023-12-28T02:02:40;-0.20;99.90
38359;DHT22;42072;48.044;14.416;2023-12-28T02:05:10;-0.10;99.90
38359;DHT22;42072;48.044;14.416;2023-12-28T02:07:38;0.00;99.90
38359;DHT22;42072;48.044;14.416;2023-12-28T02:10:05;0.00;99.90
38359;DHT22;42072;48.044;14.416;2023-12-28T02:12:33;0.00;99.90
38359;DHT22;42072;48.044;14.416;2023-12-28T02:15:00;0.00;99.90
38359;DHT22;42072;48.044;14.416;2023-12-28T02:17:47;-0.10;99.90
38359;DHT22;42072;48.044;14.416;2023-12-28T02:20:15;-0.20;99.90
38359;DHT22;42072;48.044;14.416;2023-12-28T02:22:43;-0.20;99.90
38359;DHT22;42072;48.044;14.416;2023-12-28T02:25:11;-0.30;99.90
38359;DHT22;42072;48.044;14.416;2023-12-28T02:27:42;-0.30;99.90
38359;DHT22;42072;48.044;14.416;2023-12-28T02:30:10;-0.30;99.90
38359;DHT22;42072;48.044;14.416;2023-12-28T02:35:24;-0.30;99.90
38359;DHT22;42072;48.044;14.416;2023-12-28T02:37:53;-0.40;99.90
38359;DHT22;42072;48.044;14.416;2023-12-28T02:40:22;-0.50;99.90
38359;DHT22;42072;48.044;14.416;2023-12-28T02:42:50;-0.60;99.90
38359;DHT22;42072;48.044;14.416;2023-12-28T02:45:18;-0.70;99.90
38359;DHT22;42072;48.044;14.416;2023-12-28T02:47:46;-0.80;99.90
38359;DHT22;42072;48.044;14.416;2023-12-28T02:50:13;-0.90;99.90
38359;DHT22;42072;48.044;14.416;2023-12-28T02:52:40;-0.80;99.90
38359;DHT22;42072;48.044;14.416;2023-12-28T02:55:07;-0.70;99.90
38359;DHT22;42072;48.044;14.416;2023-12-28T02:57:34;-0.60;99.90
38359;DHT22;42072;48.044;14.416;2023-12-28T03:00:04;-0.50;99.90
38359;DHT22;42072;48.044;14.416;2023-12-28T03:02:32;-0.50;99.90
38359;DHT22;42072;48.044;14.416;2023-12-28T03:04:59;-0.50;99.90
38359;DHT22;42072;48.044;14.416;2023-12-28T03:07:26;-0.50;99.90
38359;DHT22;42072;48.044;14.416;2023-12-28T03:09:53;-0.50;99.90
38359;DHT22;42072;48.044;14.416;2023-12-28T03:12:21;-0.50;99.90
38359;DHT22;42072;48.044;14.416;2023-12-28T03:14:49;-0.50;99.90
38359;DHT22;42072;48.044;14.416;2023-12-28T03:17:16;-0.40;99.90
38359;DHT22;42072;48.044;14.416;2023-12-28T03:19:43;-0.40;99.90
38359;DHT22;42072;48.044;14.416;2023-12-28T03:22:10;-0.40;99.90
38359;DHT22;42072;48.044;14.416;2023-12-28T03:24:38;-0.50;99.90
38359;DHT22;42072;48.044;14.416;2023-12-28T03:27:05;-0.50;99.90
38359;DHT22;42072;48.044;14.416;2023-12-28T03:29:32;-0.50;99.90
38359;DHT22;42072;48.044;14.416;2023-12-28T03:31:59;-0.50;99.90
38359;DHT22;42072;48.044;14.416;2023-12-28T03:34:27;-0.50;99.90
38359;DHT22;42072;48.044;14.416;2023-12-28T03:36:56;-0.30;99.90
38359;DHT22;42072;48.044;14.416;2023-12-28T03:39:24;-0.30;99.90
38359;DHT22;42072;48.044;14.416;2023-12-28T03:41:51;-0.30;99.90
38359;DHT22;42072;48.044;14.416;2023-12-28T03:44:20;-0.30;99.90
38359;DHT22;42072;48.044;14.416;2023-12-28T03:46:50;-0.30;99.90
38359;DHT22;42072;48.044;14.416;2023-12-28T03:49:18;-0.40;99.90
38359;DHT22;42072;48.044;14.416;2023-12-28T03:51:46;-0.40;99.90
38359;DHT22;42072;48.044;14.416;2023-12-28T03:54:17;-0.40;99.90
38359;DHT22;42072;48.044;14.416;2023-12-28T03:56:45;-0.40;99.90
38359;DHT22;42072;48.044;14.416;2023-12-28T03:59:13;-0.50;99.90
38359;DHT22;42072;48.044;14.416;2023-12-28T04:01:42;-0.50;99.90
38359;DHT22;42072;48.044;14.416;2023-12-28T04:04:09;-0.60;99.90
38359;DHT22;42072;48.044;14.416;2023-12-28T04:06:37;-0.60;99.90
38359;DHT22;42072;48.044;14.416;2023-12-28T04:09:05;-0.60;99.90
38359;DHT22;42072;48.044;14.416;2023-12-28T04:11:32;-0.60;99.90
38359;DHT22;42072;48.044;14.416;2023-12-28T04:14:00;-0.60;99.90
38359;DHT22;42072;48.044;14.416;2023-12-28T04:16:27;-0.70;99.90
38359;DHT22;42072;48.044;14.416;2023-12-28T04:18:54;-0.70;99.90
38359;DHT22;42072;48.044;14.416;2023-12-28T04:21:21;-0.70;99.90
38359;DHT22;42072;48.044;14.416;2023-12-28T04:23:48;-0.80;99.90
38359;DHT22;42072;48.044;14.416;2023-12-28T04:26:17;-0.80;99.90
38359;DHT22;42072;48.044;14.416;2023-12-28T04:28:45;-0.90;99.90
38359;DHT22;42072;48.044;14.416;2023-12-28T04:31:12;-0.90;99.90
38359;DHT22;42072;48.044;14.416;2023-12-28T04:33:39;-0.90;99.90
38359;DHT22;42072;48.044;14.416;2023-12-28T04:36:06;-0.80;99.90
38359;DHT22;42072;48.044;14.416;2023-12-28T04:38:34;-0.70;99.90
38359;DHT22;42072;48.044;14.416;2023-12-28T04:41:01;-0.60;99.90
38359;DHT22;42072;48.044;14.416;2023-12-28T04:43:29;-0.60;99.90
38359;DHT22;42072;48.044;14.416;2023-12-28T04:45:56;-0.60;99.90
38359;DHT22;42072;48.044;14.416;2023-12-28T04:48:23;-0.60;99.90
38359;DHT22;42072;48.044;14.416;2023-12-28T04:50:53;-0.50;99.90
38359;DHT22;42072;48.044;14.416;2023-12-28T04:53:20;-0.40;99.90
38359;DHT22;42072;48.044;14.416;2023-12-28T04:55:47;-0.40;99.90
38359;DHT22;42072;48.044;14.416;2023-12-28T04:58:14;-0.40;99.90
38359;DHT22;42072;48.044;14.416;2023-12-28T05:00:41;-0.50;99.90
38359;DHT22;42072;48.044;14.416;2023-12-28T05:03:08;-0.60;99.90
38359;DHT22;42072;48.044;14.416;2023-12-28T05:05:36;-0.60;99.90
38359;DHT22;42072;48.044;14.416;2023-12-28T05:08:03;-0.70;99.90
38359;DHT22;42072;48.044;14.416;2023-12-28T05:10:30;-0.70;99.90
38359;DHT22;42072;48.044;14.416;2023-12-28T05:12:57;-0.70;99.90
38359;DHT22;42072;48.044;14.416;2023-12-28T05:15:28;-0.70;99.90
38359;DHT22;42072;48.044;14.416;2023-12-28T05:17:56;-0.70;99.90
38359;DHT22;42072;48.044;14.416;2023-12-28T05:20:24;-0.70;99.90
38359;DHT22;42072;48.044;14.416;2023-12-28T05:22:51;-0.70;99.90
38359;DHT22;42072;48.044;14.416;2023-12-28T05:25:18;-0.80;99.90
38359;DHT22;42072;48.044;14.416;2023-12-28T05:27:45;-0.80;99.90
38359;DHT22;42072;48.044;14.416;2023-12-28T05:30:12;-0.80;99.90
38359;DHT22;42072;48.044;14.416;2023-12-28T05:32:39;-0.80;99.90
38359;DHT22;42072;48.044;14.416;2023-12-28T05:35:07;-0.80;99.90
38359;DHT22;42072;48.044;14.416;2023-12-28T05:37:34;-0.80;99.90
38359;DHT22;42072;48.044;14.416;2023-12-28T05:40:01;-0.80;99.90
38359;DHT22;42072;48.044;14.416;2023-12-28T05:42:29;-0.80;99.90
38359;DHT22;42072;48.044;14.416;2023-12-28T05:44:56;-0.90;99.90
38359;DHT22;42072;48.044;14.416;2023-12-28T05:47:23;-0.90;99.90
38359;DHT22;42072;48.044;14.416;2023-12-28T05:49:50;-1.00;99.90
38359;DHT22;42072;48.044;14.416;2023-12-28T05:52:19;-1.00;99.90
38359;DHT22;42072;48.044;14.416;2023-12-28T05:54:47;-0.90;99.90
38359;DHT22;42072;48.044;14.416;2023-12-28T05:57:15;-0.90;99.90
38359;DHT22;42072;48.044;14.416;2023-12-28T05:59:42;-1.00;99.90
38359;DHT22;42072;48.044;14.416;2023-12-28T06:02:09;-1.00;99.90
38359;DHT22;42072;48.044;14.416;2023-12-28T06:04:37;-1.10;99.90
38359;DHT22;42072;48.044;14.416;2023-12-28T06:07:04;-1.00;99.90
38359;DHT22;42072;48.044;14.416;2023-12-28T06:09:32;-0.70;99.90
38359;DHT22;42072;48.044;14.416;2023-12-28T06:11:59;-0.60;99.90
38359;DHT22;42072;48.044;14.416;2023-12-28T06:14:27;-0.70;99.90
38359;DHT22;42072;48.044;14.416;2023-12-28T06:16:54;-0.70;99.90
38359;DHT22;42072;48.044;14.416;2023-12-28T06:19:21;-0.70;99.90
38359;DHT22;42072;48.044;14.416;2023-12-28T06:21:49;-0.70;99.90
38359;DHT22;42072;48.044;14.416;2023-12-28T06:24:16;-0.70;99.90
38359;DHT22;42072;48.044;14.416;2023-12-28T06:26:44;-0.70;99.90
38359;DHT22;42072;48.044;14.416;2023-12-28T06:29:12;-0.70;99.90
38359;DHT22;42072;48.044;14.416;2023-12-28T06:31:39;-0.70;99.90
38359;DHT22;42072;48.044;14.416;2023-12-28T06:34:07;-0.70;99.90
38359;DHT22;42072;48.044;14.416;2023-12-28T06:36:34;-0.80;99.90
38359;DHT22;42072;48.044;14.416;2023-12-28T06:39:02;-0.70;99.90
38359;DHT22;42072;48.044;14.416;2023-12-28T06:41:30;-0.70;99.90
38359;DHT22;42072;48.044;14.416;2023-12-28T06:43:57;-0.70;99.90
38359;DHT22;42072;48.044;14.416;2023-12-28T06:46:24;-0.80;99.90
38359;DHT22;42072;48.044;14.416;2023-12-28T06:48:51;-0.80;99.90
38359;DHT22;42072;48.044;14.416;2023-12-28T06:51:19;-0.90;99.90
38359;DHT22;42072;48.044;14.416;2023-12-28T06:53:47;-0.90;99.90
38359;DHT22;42072;48.044;14.416;2023-12-28T06:56:16;-0.90;99.90
38359;DHT22;42072;48.044;14.416;2023-12-28T06:58:43;-0.90;99.90
38359;DHT22;42072;48.044;14.416;2023-12-28T07:01:11;-0.90;99.90
38359;DHT22;42072;48.044;14.416;2023-12-28T07:03:39;-0.80;99.90
38359;DHT22;42072;48.044;14.416;2023-12-28T07:06:08;-0.80;99.90
38359;DHT22;42072;48.044;14.416;2023-12-28T07:08:35;-0.80;99.90
38359;DHT22;42072;48.044;14.416;2023-12-28T07:11:03;-0.90;99.90
38359;DHT22;42072;48.044;14.416;2023-12-28T07:13:32;-0.80;99.90
38359;DHT22;42072;48.044;14.416;2023-12-28T07:15:59;-0.80;99.90
38359;DHT22;42072;48.044;14.416;2023-12-28T07:18:27;-0.90;99.90
38359;DHT22;42072;48.044;14.416;2023-12-28T07:20:56;-0.80;99.90
38359;DHT22;42072;48.044;14.416;2023-12-28T07:23:25;-0.90;99.90
38359;DHT22;42072;48.044;14.416;2023-12-28T07:25:52;-0.80;99.90
38359;DHT22;42072;48.044;14.416;2023-12-28T07:28:19;-0.80;99.90
38359;DHT22;42072;48.044;14.416;2023-12-28T07:30:47;-0.80;99.90
38359;DHT22;42072;48.044;14.416;2023-12-28T07:33:15;-0.80;99.90
38359;DHT22;42072;48.044;14.416;2023-12-28T07:35:42;-0.80;99.90
38359;DHT22;42072;48.044;14.416;2023-12-28T07:38:09;-0.70;99.90
38359;DHT22;42072;48.044;14.416;2023-12-28T07:40:36;-0.70;99.90
38359;DHT22;42072;48.044;14.416;2023-12-28T07:43:03;-0.60;99.90
38359;DHT22;42072;48.044;14.416;2023-12-28T07:45:31;-0.50;99.90
38359;DHT22;42072;48.044;14.416;2023-12-28T07:47:59;-0.40;99.90
38359;DHT22;42072;48.044;14.416;2023-12-28T07:50:27;-0.30;99.90
38359;DHT22;42072;48.044;14.416;2023-12-28T07:52:54;-0.20;99.90
38359;DHT22;42072;48.044;14.416;2023-12-28T07:55:21;-0.20;99.90
38359;DHT22;42072;48.044;14.416;2023-12-28T07:57:48;-0.10;99.90
38359;DHT22;42072;48.044;14.416;2023-12-28T08:00:16;0.00;99.90
38359;DHT22;42072;48.044;14.416;2023-12-28T08:02:43;0.10;99.90
38359;DHT22;42072;48.044;14.416;2023-12-28T08:05:10;0.10;99.90
38359;DHT22;42072;48.044;14.416;2023-12-28T08:07:37;0.20;99.90
38359;DHT22;42072;48.044;14.416;2023-12-28T08:10:04;0.30;99.90
38359;DHT22;42072;48.044;14.416;2023-12-28T08:12:32;0.30;99.90
38359;DHT22;42072;48.044;14.416;2023-12-28T08:15:00;0.40;99.90
38359;DHT22;42072;48.044;14.416;2023-12-28T08:17:27;0.50;99.90
38359;DHT22;42072;48.044;14.416;2023-12-28T08:19:54;0.60;99.90
38359;DHT22;42072;48.044;14.416;2023-12-28T08:22:22;0.70;99.90
38359;DHT22;42072;48.044;14.416;2023-12-28T08:24:49;0.70;99.90
38359;DHT22;42072;48.044;14.416;2023-12-28T08:27:16;0.70;99.90
38359;DHT22;42072;48.044;14.416;2023-12-28T08:29:44;0.70;99.90
38359;DHT22;42072;48.044;14.416;2023-12-28T08:32:12;0.80;99.90
38359;DHT22;42072;48.044;14.416;2023-12-28T08:34:39;0.80;99.90
38359;DHT22;42072;48.044;14.416;2023-12-28T08:37:06;0.90;99.90
38359;DHT22;42072;48.044;14.416;2023-12-28T08:39:33;0.90;99.90
38359;DHT22;42072;48.044;14.416;2023-12-28T08:42:01;0.90;99.90
38359;DHT22;42072;48.044;14.416;2023-12-28T08:44:28;1.00;99.90
38359;DHT22;42072;48.044;14.416;2023-12-28T08:46:55;1.10;99.90
38359;DHT22;42072;48.044;14.416;2023-12-28T08:49:23;1.10;99.90
38359;DHT22;42072;48.044;14.416;2023-12-28T08:51:50;1.20;99.90
38359;DHT22;42072;48.044;14.416;2023-12-28T08:54:18;1.30;99.90
38359;DHT22;42072;48.044;14.416;2023-12-28T08:56:45;1.40;99.90
38359;DHT22;42072;48.044;14.416;2023-12-28T08:59:17;1.50;99.90
38359;DHT22;42072;48.044;14.416;2023-12-28T09:01:44;1.50;99.90
38359;DHT22;42072;48.044;14.416;2023-12-28T09:04:12;1.60;99.90
38359;DHT22;42072;48.044;14.416;2023-12-28T09:06:41;1.70;99.90
38359;DHT22;42072;48.044;14.416;2023-12-28T09:09:08;1.70;99.90
38359;DHT22;42072;48.044;14.416;2023-12-28T09:11:36;1.80;99.90
38359;DHT22;42072;48.044;14.416;2023-12-28T09:14:03;2.00;99.90
38359;DHT22;42072;48.044;14.416;2023-12-28T09:16:30;2.10;99.90
38359;DHT22;42072;48.044;14.416;2023-12-28T09:18:57;2.20;99.90
38359;DHT22;42072;48.044;14.416;2023-12-28T09:21:25;2.30;99.90
38359;DHT22;42072;48.044;14.416;2023-12-28T09:23:53;2.40;99.90
38359;DHT22;42072;48.044;14.416;2023-12-28T09:26:20;2.50;99.90
38359;DHT22;42072;48.044;14.416;2023-12-28T09:28:47;2.60;99.90
38359;DHT22;42072;48.044;14.416;2023-12-28T09:31:14;2.70;99.90
38359;DHT22;42072;48.044;14.416;2023-12-28T09:33:42;2.90;99.90
38359;DHT22;42072;48.044;14.416;2023-12-28T09:36:10;3.00;99.90
38359;DHT22;42072;48.044;14.416;2023-12-28T09:38:40;3.10;99.90
38359;DHT22;42072;48.044;14.416;2023-12-28T09:41:11;3.20;99.90
38359;DHT22;42072;48.044;14.416;2023-12-28T09:43:40;3.40;99.90
38359;DHT22;42072;48.044;14.416;2023-12-28T09:46:07;3.50;99.90
38359;DHT22;42072;48.044;14.416;2023-12-28T09:48:35;3.60;53.20
38359;DHT22;42072;48.044;14.416;2023-12-28T09:51:04;3.80;1.00
38359;DHT22;42072;48.044;14.416;2023-12-28T09:53:34;3.90;1.00
38359;DHT22;42072;48.044;14.416;2023-12-28T09:56:01;4.00;99.90
38359;DHT22;42072;48.044;14.416;2023-12-28T09:58:30;4.10;99.90
38359;DHT22;42072;48.044;14.416;2023-12-28T10:00:59;4.20;99.90
38359;DHT22;42072;48.044;14.416;2023-12-28T10:03:26;4.40;76.30
38359;DHT22;42072;48.044;14.416;2023-12-28T10:05:53;4.50;52.90
38359;DHT22;42072;48.044;14.416;2023-12-28T10:08:20;4.60;81.40
38359;DHT22;42072;48.044;14.416;2023-12-28T10:10:49;4.80;87.60
38359;DHT22;42072;48.044;14.416;2023-12-28T10:13:19;4.90;58.90
38359;DHT22;42072;48.044;14.416;2023-12-28T10:15:47;5.10;72.30
38359;DHT22;42072;48.044;14.416;2023-12-28T10:18:14;5.20;1.00
38359;DHT22;42072;48.044;14.416;2023-12-28T10:20:48;5.30;1.00
38359;DHT22;42072;48.044;14.416;2023-12-28T10:23:15;5.50;1.00
38359;DHT22;42072;48.044;14.416;2023-12-28T10:25:43;5.50;1.00
38359;DHT22;42072;48.044;14.416;2023-12-28T10:28:10;5.60;99.90
38359;DHT22;42072;48.044;14.416;2023-12-28T10:30:39;5.80;99.90
38359;DHT22;42072;48.044;14.416;2023-12-28T10:33:10;5.90;99.90
38359;DHT22;42072;48.044;14.416;2023-12-28T10:35:37;6.00;99.90
38359;DHT22;42072;48.044;14.416;2023-12-28T10:38:05;6.20;99.90
38359;DHT22;42072;48.044;14.416;2023-12-28T10:40:34;6.30;99.90
38359;DHT22;42072;48.044;14.416;2023-12-28T10:43:06;6.40;99.90
38359;DHT22;42072;48.044;14.416;2023-12-28T10:45:35;6.70;71.00
38359;DHT22;42072;48.044;14.416;2023-12-28T10:48:06;6.80;1.00
38359;DHT22;42072;48.044;14.416;2023-12-28T10:50:47;7.00;1.00
38359;DHT22;42072;48.044;14.416;2023-12-28T10:58:41;7.30;1.00
38359;DHT22;42072;48.044;14.416;2023-12-28T11:01:11;7.40;1.00
38359;DHT22;42072;48.044;14.416;2023-12-28T11:03:40;7.30;1.00
38359;DHT22;42072;48.044;14.416;2023-12-28T11:06:08;7.30;1.00
38359;DHT22;42072;48.044;14.416;2023-12-28T11:08:35;7.30;1.00
38359;DHT22;42072;48.044;14.416;2023-12-28T11:11:02;7.30;1.00
38359;DHT22;42072;48.044;14.416;2023-12-28T11:13:31;7.40;1.00
38359;DHT22;42072;48.044;14.416;2023-12-28T11:15:59;7.50;1.00
38359;DHT22;42072;48.044;14.416;2023-12-28T11:18:26;7.60;1.00
38359;DHT22;42072;48.044;14.416;2023-12-28T11:20:55;7.80;1.00
38359;DHT22;42072;48.044;14.416;2023-12-28T11:23:24;7.90;1.00
38359;DHT22;42072;48.044;14.416;2023-12-28T11:25:51;7.90;1.00
38359;DHT22;42072;48.044;14.416;2023-12-28T11:28:18;7.90;1.00
38359;DHT22;42072;48.044;14.416;2023-12-28T11:30:47;8.00;1.00
38359;DHT22;42072;48.044;14.416;2023-12-28T11:33:14;8.00;1.00
38359;DHT22;42072;48.044;14.416;2023-12-28T11:35:43;8.00;1.00
38359;DHT22;42072;48.044;14.416;2023-12-28T11:38:14;8.10;1.00
38359;DHT22;42072;48.044;14.416;2023-12-28T11:40:42;8.20;1.00
38359;DHT22;42072;48.044;14.416;2023-12-28T11:43:14;8.30;1.00
38359;DHT22;42072;48.044;14.416;2023-12-28T11:45:48;8.40;1.00
38359;DHT22;42072;48.044;14.416;2023-12-28T11:48:25;8.30;1.00
38359;DHT22;42072;48.044;14.416;2023-12-28T11:50:57;8.30;1.00
38359;DHT22;42072;48.044;14.416;2023-12-28T11:53:25;8.40;1.00
38359;DHT22;42072;48.044;14.416;2023-12-28T11:55:52;8.50;1.00
38359;DHT22;42072;48.044;14.416;2023-12-28T11:58:26;8.60;1.00
38359;DHT22;42072;48.044;14.416;2023-12-28T12:00:53;8.70;1.00
38359;DHT22;42072;48.044;14.416;2023-12-28T12:03:21;8.70;1.00
38359;DHT22;42072;48.044;14.416;2023-12-28T12:05:48;9.00;1.00
38359;DHT22;42072;48.044;14.416;2023-12-28T12:08:16;9.10;1.00
38359;DHT22;42072;48.044;14.416;2023-12-28T12:10:44;9.30;99.90
38359;DHT22;42072;48.044;14.416;2023-12-28T12:13:11;9.40;99.90
38359;DHT22;42072;48.044;14.416;2023-12-28T12:15:38;9.60;99.90
38359;DHT22;42072;48.044;14.416;2023-12-28T12:18:05;9.50;99.90
38359;DHT22;42072;48.044;14.416;2023-12-28T12:20:33;9.50;99.90
38359;DHT22;42072;48.044;14.416;2023-12-28T12:23:00;9.60;99.90
38359;DHT22;42072;48.044;14.416;2023-12-28T12:25:28;9.90;99.90
38359;DHT22;42072;48.044;14.416;2023-12-28T12:27:55;10.10;99.90
38359;DHT22;42072;48.044;14.416;2023-12-28T12:30:23;10.30;99.90
38359;DHT22;42072;48.044;14.416;2023-12-28T12:32:50;10.20;99.90
38359;DHT22;42072;48.044;14.416;2023-12-28T12:35:17;10.00;99.90
38359;DHT22;42072;48.044;14.416;2023-12-28T12:37:48;9.90;1.00
38359;DHT22;42072;48.044;14.416;2023-12-28T12:40:17;9.90;1.00
38359;DHT22;42072;48.044;14.416;2023-12-28T12:42:53;9.90;1.00
38359;DHT22;42072;48.044;14.416;2023-12-28T12:45:21;9.80;1.00
38359;DHT22;42072;48.044;14.416;2023-12-28T12:47:51;9.40;1.00
38359;DHT22;42072;48.044;14.416;2023-12-28T12:50:19;9.20;1.00
38359;DHT22;42072;48.044;14.416;2023-12-28T12:52:46;9.10;1.00
38359;DHT22;42072;48.044;14.416;2023-12-28T12:55:15;8.90;1.00
38359;DHT22;42072;48.044;14.416;2023-12-28T12:57:42;8.70;1.00
38359;DHT22;42072;48.044;14.416;2023-12-28T13:00:09;8.40;1.00
38359;DHT22;42072;48.044;14.416;2023-12-28T13:02:37;8.00;1.00
38359;DHT22;42072;48.044;14.416;2023-12-28T13:05:05;7.80;1.00
38359;DHT22;42072;48.044;14.416;2023-12-28T13:07:33;7.90;1.00
38359;DHT22;42072;48.044;14.416;2023-12-28T13:10:00;7.80;1.00
38359;DHT22;42072;48.044;14.416;2023-12-28T13:12:28;7.70;1.00
38359;DHT22;42072;48.044;14.416;2023-12-28T13:14:55;7.60;1.00
38359;DHT22;42072;48.044;14.416;2023-12-28T13:17:23;7.50;1.00
38359;DHT22;42072;48.044;14.416;2023-12-28T13:19:50;7.60;1.00
38359;DHT22;42072;48.044;14.416;2023-12-28T13:22:17;7.60;1.00
38359;DHT22;42072;48.044;14.416;2023-12-28T13:24:45;7.40;1.00
38359;DHT22;42072;48.044;14.416;2023-12-28T13:27:12;7.30;13.20
38359;DHT22;42072;48.044;14.416;2023-12-28T13:29:41;7.20;30.70
38359;DHT22;42072;48.044;14.416;2023-12-28T13:32:10;7.10;40.00
38359;DHT22;42072;48.044;14.416;2023-12-28T13:34:37;7.10;50.70
38359;DHT22;42072;48.044;14.416;2023-12-28T13:37:04;7.00;45.60
38359;DHT22;42072;48.044;14.416;2023-12-28T13:39:31;6.90;53.10
38359;DHT22;42072;48.044;14.416;2023-12-28T13:41:59;6.80;77.60
38359;DHT22;42072;48.044;14.416;2023-12-28T13:44:26;6.80;77.60
38359;DHT22;42072;48.044;14.416;2023-12-28T13:46:55;6.80;93.40
38359;DHT22;42072;48.044;14.416;2023-12-28T13:49:22;6.90;96.60
38359;DHT22;42072;48.044;14.416;2023-12-28T13:51:49;6.90;98.70
38359;DHT22;42072;48.044;14.416;2023-12-28T13:54:16;6.90;97.70
38359;DHT22;42072;48.044;14.416;2023-12-28T13:56:46;6.80;97.00
38359;DHT22;42072;48.044;14.416;2023-12-28T13:59:14;6.70;99.90
38359;DHT22;42072;48.044;14.416;2023-12-28T14:01:41;6.60;99.90
38359;DHT22;42072;48.044;14.416;2023-12-28T14:04:08;6.70;99.90
38359;DHT22;42072;48.044;14.416;2023-12-28T14:06:35;6.70;99.90
38359;DHT22;42072;48.044;14.416;2023-12-28T14:09:03;6.70;99.90
38359;DHT22;42072;48.044;14.416;2023-12-28T14:11:30;6.70;99.90
38359;DHT22;42072;48.044;14.416;2023-12-28T14:13:57;6.80;99.90
38359;DHT22;42072;48.044;14.416;2023-12-28T14:16:24;6.80;99.90
38359;DHT22;42072;48.044;14.416;2023-12-28T14:18:51;6.80;99.90
38359;DHT22;42072;48.044;14.416;2023-12-28T14:21:20;6.80;99.90
38359;DHT22;42072;48.044;14.416;2023-12-28T14:23:47;6.80;99.90
38359;DHT22;42072;48.044;14.416;2023-12-28T14:26:15;6.90;99.90
38359;DHT22;42072;48.044;14.416;2023-12-28T14:28:42;6.90;99.90
38359;DHT22;42072;48.044;14.416;2023-12-28T14:31:10;6.90;99.90
38359;DHT22;42072;48.044;14.416;2023-12-28T14:33:38;6.90;99.90
38359;DHT22;42072;48.044;14.416;2023-12-28T14:36:12;6.90;99.90
38359;DHT22;42072;48.044;14.416;2023-12-28T14:38:41;7.00;99.90
38359;DHT22;42072;48.044;14.416;2023-12-28T14:41:08;6.90;99.90
38359;DHT22;42072;48.044;14.416;2023-12-28T14:43:35;6.80;99.90
38359;DHT22;42072;48.044;14.416;2023-12-28T14:46:03;6.90;99.90
38359;DHT22;42072;48.044;14.416;2023-12-28T14:48:32;6.80;99.90
38359;DHT22;42072;48.044;14.416;2023-12-28T14:50:59;6.70;99.90
38359;DHT22;42072;48.044;14.416;2023-12-28T14:53:26;6.60;99.90
38359;DHT22;42072;48.044;14.416;2023-12-28T14:55:53;6.60;99.90
38359;DHT22;42072;48.044;14.416;2023-12-28T14:58:20;6.50;99.90
38359;DHT22;42072;48.044;14.416;2023-12-28T15:00:49;6.40;99.90
38359;DHT22;42072;48.044;14.416;2023-12-28T15:03:16;6.30;99.90
38359;DHT22;42072;48.044;14.416;2023-12-28T15:05:43;6.20;99.90
38359;DHT22;42072;48.044;14.416;2023-12-28T15:08:10;6.20;99.90
38359;DHT22;42072;48.044;14.416;2023-12-28T15:10:37;6.10;99.90
38359;DHT22;42072;48.044;14.416;2023-12-28T15:13:04;6.10;99.90
38359;DHT22;42072;48.044;14.416;2023-12-28T15:15:32;6.00;99.90
38359;DHT22;42072;48.044;14.416;2023-12-28T15:17:59;5.90;99.90
38359;DHT22;42072;48.044;14.416;2023-12-28T15:20:27;5.90;99.90
38359;DHT22;42072;48.044;14.416;2023-12-28T15:22:54;5.70;99.90
38359;DHT22;42072;48.044;14.416;2023-12-28T15:25:21;5.60;99.90
38359;DHT22;42072;48.044;14.416;2023-12-28T15:27:48;5.50;99.90
38359;DHT22;42072;48.044;14.416;2023-12-28T15:30:16;5.50;99.90
38359;DHT22;42072;48.044;14.416;2023-12-28T15:32:43;5.40;99.90
38359;DHT22;42072;48.044;14.416;2023-12-28T15:35:13;5.30;99.90
38359;DHT22;42072;48.044;14.416;2023-12-28T15:37:44;5.20;99.90
38359;DHT22;42072;48.044;14.416;2023-12-28T15:40:11;5.10;99.90